Terminal Aerodrome Forecast
Issued by NWS Boston, MA

Home | Current Version | Previous Version | Text Only | Print | Product List | Glossary On
Versions: 1 2 3 4 5 6 7 8 9 10 11 12 13 14 15 16 17 18 19 20 21 22 23 24 25
000
FTUS41 KBOX 071409 AAA
TAFBDL
TAF AMD
KBDL 071409Z 0714/0818 01005KT 3SM -DZ BR BKN003
     FM071600 00000KT P6SM OVC010
     FM072200 VRB03KT P6SM BKN080
     FM080600 VRB03KT P6SM SCT130
     FM081000 VRB03KT P6SM BKN110
     FM081700 26007KT P6SM BKN080=

USA.gov is the U.S. government's official web portal to all federal, state and local government web resources and services.